sensor_id;sensor_type;location;lat;lon;timestamp;P1;durP1;ratioP1;P2;durP2;ratioP2
12208;SDS011;6167;43.080;25.634;2023-12-20T00:02:06;34.40;;;20.77;;
12208;SDS011;6167;43.080;25.634;2023-12-20T00:04:33;32.77;;;20.93;;
12208;SDS011;6167;43.080;25.634;2023-12-20T00:07:00;29.50;;;18.27;;
12208;SDS011;6167;43.080;25.634;2023-12-20T00:09:26;28.90;;;18.60;;
12208;SDS011;6167;43.080;25.634;2023-12-20T00:11:53;27.37;;;19.40;;
12208;SDS011;6167;43.080;25.634;2023-12-20T00:14:20;27.80;;;19.23;;
12208;SDS011;6167;43.080;25.634;2023-12-20T00:16:47;27.17;;;18.20;;
12208;SDS011;6167;43.080;25.634;2023-12-20T00:19:15;30.37;;;19.27;;
12208;SDS011;6167;43.080;25.634;2023-12-20T00:21:42;34.27;;;21.43;;
12208;SDS011;6167;43.080;25.634;2023-12-20T00:24:09;30.23;;;20.90;;
12208;SDS011;6167;43.080;25.634;2023-12-20T00:26:36;31.57;;;21.17;;
12208;SDS011;6167;43.080;25.634;2023-12-20T00:29:03;31.30;;;20.50;;
12208;SDS011;6167;43.080;25.634;2023-12-20T00:31:30;28.23;;;19.20;;
12208;SDS011;6167;43.080;25.634;2023-12-20T00:33:56;35.17;;;21.27;;
12208;SDS011;6167;43.080;25.634;2023-12-20T00:36:25;31.53;;;21.13;;
12208;SDS011;6167;43.080;25.634;2023-12-20T00:38:52;26.73;;;18.37;;
12208;SDS011;6167;43.080;25.634;2023-12-20T00:41:19;26.10;;;18.27;;
12208;SDS011;6167;43.080;25.634;2023-12-20T00:43:45;23.60;;;17.13;;
12208;SDS011;6167;43.080;25.634;2023-12-20T00:46:12;33.93;;;21.10;;
12208;SDS011;6167;43.080;25.634;2023-12-20T00:48:39;35.67;;;20.90;;
12208;SDS011;6167;43.080;25.634;2023-12-20T00:51:07;26.97;;;19.50;;
12208;SDS011;6167;43.080;25.634;2023-12-20T00:53:36;24.90;;;17.87;;
12208;SDS011;6167;43.080;25.634;2023-12-20T00:56:02;26.40;;;18.73;;
12208;SDS011;6167;43.080;25.634;2023-12-20T00:58:29;31.17;;;20.60;;
12208;SDS011;6167;43.080;25.634;2023-12-20T01:00:56;30.67;;;20.30;;
12208;SDS011;6167;43.080;25.634;2023-12-20T01:03:23;31.63;;;19.53;;
12208;SDS011;6167;43.080;25.634;2023-12-20T01:05:50;28.77;;;19.37;;
12208;SDS011;6167;43.080;25.634;2023-12-20T01:08:17;25.37;;;17.33;;
12208;SDS011;6167;43.080;25.634;2023-12-20T01:10:45;21.23;;;15.43;;
12208;SDS011;6167;43.080;25.634;2023-12-20T01:13:12;22.27;;;14.03;;
12208;SDS011;6167;43.080;25.634;2023-12-20T01:15:39;20.20;;;15.00;;
12208;SDS011;6167;43.080;25.634;2023-12-20T01:18:06;21.90;;;15.17;;
12208;SDS011;6167;43.080;25.634;2023-12-20T01:20:33;21.67;;;15.50;;
12208;SDS011;6167;43.080;25.634;2023-12-20T01:23:00;26.20;;;16.27;;
12208;SDS011;6167;43.080;25.634;2023-12-20T01:25:27;24.53;;;16.67;;
12208;SDS011;6167;43.080;25.634;2023-12-20T01:27:55;22.77;;;15.63;;
12208;SDS011;6167;43.080;25.634;2023-12-20T01:30:23;20.23;;;14.53;;
12208;SDS011;6167;43.080;25.634;2023-12-20T01:32:50;22.93;;;15.80;;
12208;SDS011;6167;43.080;25.634;2023-12-20T01:35:17;24.43;;;15.77;;
12208;SDS011;6167;43.080;25.634;2023-12-20T01:37:44;20.53;;;14.73;;
12208;SDS011;6167;43.080;25.634;2023-12-20T01:40:11;19.67;;;14.80;;
12208;SDS011;6167;43.080;25.634;2023-12-20T01:42:37;27.17;;;17.17;;
12208;SDS011;6167;43.080;25.634;2023-12-20T01:45:06;23.70;;;17.07;;
12208;SDS011;6167;43.080;25.634;2023-12-20T01:47:33;24.47;;;17.60;;
12208;SDS011;6167;43.080;25.634;2023-12-20T01:50:01;25.43;;;17.13;;
12208;SDS011;6167;43.080;25.634;2023-12-20T01:52:29;24.90;;;18.13;;
12208;SDS011;6167;43.080;25.634;2023-12-20T01:54:56;24.53;;;17.40;;
12208;SDS011;6167;43.080;25.634;2023-12-20T01:57:27;22.77;;;17.40;;
12208;SDS011;6167;43.080;25.634;2023-12-20T01:59:55;26.37;;;16.83;;
12208;SDS011;6167;43.080;25.634;2023-12-20T02:02:24;23.57;;;17.17;;
12208;SDS011;6167;43.080;25.634;2023-12-20T02:04:53;21.03;;;16.67;;
12208;SDS011;6167;43.080;25.634;2023-12-20T02:07:20;26.67;;;16.73;;
12208;SDS011;6167;43.080;25.634;2023-12-20T02:09:48;23.83;;;16.27;;
12208;SDS011;6167;43.080;25.634;2023-12-20T02:12:16;24.10;;;17.10;;
12208;SDS011;6167;43.080;25.634;2023-12-20T02:14:43;25.67;;;17.80;;
12208;SDS011;6167;43.080;25.634;2023-12-20T02:17:10;27.13;;;17.83;;
12208;SDS011;6167;43.080;25.634;2023-12-20T02:19:38;30.63;;;17.83;;
12208;SDS011;6167;43.080;25.634;2023-12-20T02:22:07;25.27;;;18.00;;
12208;SDS011;6167;43.080;25.634;2023-12-20T02:24:35;31.57;;;19.33;;
12208;SDS011;6167;43.080;25.634;2023-12-20T02:27:01;31.13;;;18.63;;
12208;SDS011;6167;43.080;25.634;2023-12-20T02:29:28;24.80;;;17.43;;
12208;SDS011;6167;43.080;25.634;2023-12-20T02:31:55;25.70;;;18.33;;
12208;SDS011;6167;43.080;25.634;2023-12-20T02:34:22;24.33;;;17.60;;
12208;SDS011;6167;43.080;25.634;2023-12-20T02:36:49;25.63;;;18.37;;
12208;SDS011;6167;43.080;25.634;2023-12-20T02:39:17;26.03;;;18.70;;
12208;SDS011;6167;43.080;25.634;2023-12-20T02:41:45;28.47;;;19.10;;
12208;SDS011;6167;43.080;25.634;2023-12-20T02:44:12;24.90;;;17.07;;
12208;SDS011;6167;43.080;25.634;2023-12-20T02:46:39;27.13;;;18.27;;
12208;SDS011;6167;43.080;25.634;2023-12-20T02:49:05;23.90;;;17.33;;
12208;SDS011;6167;43.080;25.634;2023-12-20T02:51:32;23.07;;;16.73;;
12208;SDS011;6167;43.080;25.634;2023-12-20T02:53:59;25.20;;;16.13;;
12208;SDS011;6167;43.080;25.634;2023-12-20T02:56:27;26.93;;;17.00;;
12208;SDS011;6167;43.080;25.634;2023-12-20T02:58:54;26.07;;;18.57;;
12208;SDS011;6167;43.080;25.634;2023-12-20T03:01:21;24.87;;;18.43;;
12208;SDS011;6167;43.080;25.634;2023-12-20T03:03:47;25.90;;;16.63;;
12208;SDS011;6167;43.080;25.634;2023-12-20T03:06:15;23.53;;;15.33;;
12208;SDS011;6167;43.080;25.634;2023-12-20T03:08:43;22.80;;;16.40;;
12208;SDS011;6167;43.080;25.634;2023-12-20T03:11:09;25.60;;;15.97;;
12208;SDS011;6167;43.080;25.634;2023-12-20T03:13:38;25.30;;;15.90;;
12208;SDS011;6167;43.080;25.634;2023-12-20T03:16:07;23.53;;;16.47;;
12208;SDS011;6167;43.080;25.634;2023-12-20T03:18:35;24.50;;;17.03;;
12208;SDS011;6167;43.080;25.634;2023-12-20T03:21:02;22.43;;;16.77;;
12208;SDS011;6167;43.080;25.634;2023-12-20T03:23:29;25.23;;;17.43;;
12208;SDS011;6167;43.080;25.634;2023-12-20T03:25:57;24.00;;;17.30;;
12208;SDS011;6167;43.080;25.634;2023-12-20T03:28:24;23.70;;;16.73;;
12208;SDS011;6167;43.080;25.634;2023-12-20T03:30:53;26.43;;;19.70;;
12208;SDS011;6167;43.080;25.634;2023-12-20T03:33:20;30.40;;;20.13;;
12208;SDS011;6167;43.080;25.634;2023-12-20T03:35:47;29.93;;;17.60;;
12208;SDS011;6167;43.080;25.634;2023-12-20T03:38:14;25.33;;;18.40;;
12208;SDS011;6167;43.080;25.634;2023-12-20T03:40:40;23.50;;;17.20;;
12208;SDS011;6167;43.080;25.634;2023-12-20T03:43:07;25.27;;;17.47;;
12208;SDS011;6167;43.080;25.634;2023-12-20T03:45:34;27.63;;;17.73;;
12208;SDS011;6167;43.080;25.634;2023-12-20T03:48:03;31.03;;;18.90;;
12208;SDS011;6167;43.080;25.634;2023-12-20T03:50:30;28.43;;;20.23;;
12208;SDS011;6167;43.080;25.634;2023-12-20T03:52:57;32.60;;;20.80;;
12208;SDS011;6167;43.080;25.634;2023-12-20T03:55:24;31.50;;;21.53;;
12208;SDS011;6167;43.080;25.634;2023-12-20T04:00:51;34.23;;;22.60;;
12208;SDS011;6167;43.080;25.634;2023-12-20T04:03:19;32.97;;;20.77;;
12208;SDS011;6167;43.080;25.634;2023-12-20T04:05:46;34.20;;;22.03;;
12208;SDS011;6167;43.080;25.634;2023-12-20T04:08:13;32.33;;;22.47;;
12208;SDS011;6167;43.080;25.634;2023-12-20T04:10:41;35.27;;;22.80;;
12208;SDS011;6167;43.080;25.634;2023-12-20T04:13:08;35.23;;;22.60;;
12208;SDS011;6167;43.080;25.634;2023-12-20T04:15:35;40.57;;;24.50;;
12208;SDS011;6167;43.080;25.634;2023-12-20T04:18:02;38.50;;;24.10;;
12208;SDS011;6167;43.080;25.634;2023-12-20T04:20:30;37.57;;;23.77;;
12208;SDS011;6167;43.080;25.634;2023-12-20T04:22:57;35.23;;;23.53;;
12208;SDS011;6167;43.080;25.634;2023-12-20T04:25:25;35.37;;;24.10;;
12208;SDS011;6167;43.080;25.634;2023-12-20T04:27:52;38.27;;;23.33;;
12208;SDS011;6167;43.080;25.634;2023-12-20T04:30:19;39.53;;;24.17;;
12208;SDS011;6167;43.080;25.634;2023-12-20T04:32:45;36.10;;;24.17;;
12208;SDS011;6167;43.080;25.634;2023-12-20T04:35:12;38.17;;;22.57;;
12208;SDS011;6167;43.080;25.634;2023-12-20T04:37:48;34.67;;;21.57;;
12208;SDS011;6167;43.080;25.634;2023-12-20T04:40:15;31.30;;;19.60;;
12208;SDS011;6167;43.080;25.634;2023-12-20T04:42:42;38.27;;;22.43;;
12208;SDS011;6167;43.080;25.634;2023-12-20T04:45:09;37.17;;;21.10;;
12208;SDS011;6167;43.080;25.634;2023-12-20T04:47:38;35.57;;;23.83;;
12208;SDS011;6167;43.080;25.634;2023-12-20T04:50:05;35.37;;;23.27;;
12208;SDS011;6167;43.080;25.634;2023-12-20T04:52:33;38.43;;;24.10;;
12208;SDS011;6167;43.080;25.634;2023-12-20T04:55:03;38.50;;;25.60;;
12208;SDS011;6167;43.080;25.634;2023-12-20T04:57:31;36.33;;;23.40;;
12208;SDS011;6167;43.080;25.634;2023-12-20T04:59:58;39.30;;;24.07;;
12208;SDS011;6167;43.080;25.634;2023-12-20T05:02:25;38.60;;;25.37;;
12208;SDS011;6167;43.080;25.634;2023-12-20T05:04:52;33.93;;;22.50;;
12208;SDS011;6167;43.080;25.634;2023-12-20T05:07:19;39.03;;;23.43;;
12208;SDS011;6167;43.080;25.634;2023-12-20T05:09:46;32.17;;;21.67;;
12208;SDS011;6167;43.080;25.634;2023-12-20T05:12:14;43.50;;;25.60;;
12208;SDS011;6167;43.080;25.634;2023-12-20T05:14:41;44.23;;;27.87;;
12208;SDS011;6167;43.080;25.634;2023-12-20T05:17:11;49.87;;;27.13;;
12208;SDS011;6167;43.080;25.634;2023-12-20T05:19:48;45.90;;;28.43;;
12208;SDS011;6167;43.080;25.634;2023-12-20T05:22:15;50.80;;;27.83;;
12208;SDS011;6167;43.080;25.634;2023-12-20T05:24:42;46.40;;;27.33;;
12208;SDS011;6167;43.080;25.634;2023-12-20T05:27:09;41.17;;;25.97;;
12208;SDS011;6167;43.080;25.634;2023-12-20T05:29:37;43.53;;;26.73;;
12208;SDS011;6167;43.080;25.634;2023-12-20T05:32:04;47.07;;;27.70;;
12208;SDS011;6167;43.080;25.634;2023-12-20T05:34:32;42.47;;;26.33;;
12208;SDS011;6167;43.080;25.634;2023-12-20T05:36:58;38.47;;;25.07;;
12208;SDS011;6167;43.080;25.634;2023-12-20T05:39:26;36.27;;;22.83;;
12208;SDS011;6167;43.080;25.634;2023-12-20T05:41:53;38.03;;;22.83;;
12208;SDS011;6167;43.080;25.634;2023-12-20T05:44:20;41.07;;;21.80;;
12208;SDS011;6167;43.080;25.634;2023-12-20T05:46:48;37.57;;;22.93;;
12208;SDS011;6167;43.080;25.634;2023-12-20T05:49:15;46.73;;;23.07;;
12208;SDS011;6167;43.080;25.634;2023-12-20T05:51:42;41.20;;;24.53;;
12208;SDS011;6167;43.080;25.634;2023-12-20T05:54:09;37.60;;;24.90;;
12208;SDS011;6167;43.080;25.634;2023-12-20T05:56:36;36.33;;;24.00;;
12208;SDS011;6167;43.080;25.634;2023-12-20T05:59:02;39.80;;;24.87;;
12208;SDS011;6167;43.080;25.634;2023-12-20T06:01:29;40.03;;;25.57;;
12208;SDS011;6167;43.080;25.634;2023-12-20T06:03:57;38.47;;;25.00;;
12208;SDS011;6167;43.080;25.634;2023-12-20T06:06:24;36.73;;;25.23;;
12208;SDS011;6167;43.080;25.634;2023-12-20T06:08:51;40.17;;;26.13;;
12208;SDS011;6167;43.080;25.634;2023-12-20T06:11:18;42.90;;;26.30;;
12208;SDS011;6167;43.080;25.634;2023-12-20T06:13:45;47.33;;;25.87;;
12208;SDS011;6167;43.080;25.634;2023-12-20T06:16:11;36.63;;;25.80;;
12208;SDS011;6167;43.080;25.634;2023-12-20T06:18:38;34.93;;;24.93;;
12208;SDS011;6167;43.080;25.634;2023-12-20T06:21:06;36.57;;;23.80;;
12208;SDS011;6167;43.080;25.634;2023-12-20T06:23:33;23.57;;;14.30;;
12208;SDS011;6167;43.080;25.634;2023-12-20T06:26:00;41.33;;;26.63;;
12208;SDS011;6167;43.080;25.634;2023-12-20T06:28:27;44.37;;;30.37;;
12208;SDS011;6167;43.080;25.634;2023-12-20T06:30:54;35.73;;;26.83;;
12208;SDS011;6167;43.080;25.634;2023-12-20T06:33:22;32.27;;;21.50;;
12208;SDS011;6167;43.080;25.634;2023-12-20T06:35:49;31.50;;;19.17;;
12208;SDS011;6167;43.080;25.634;2023-12-20T06:38:17;29.90;;;19.70;;
12208;SDS011;6167;43.080;25.634;2023-12-20T06:40:45;29.57;;;20.80;;
12208;SDS011;6167;43.080;25.634;2023-12-20T06:43:12;34.00;;;23.37;;
12208;SDS011;6167;43.080;25.634;2023-12-20T06:45:39;37.00;;;24.60;;
12208;SDS011;6167;43.080;25.634;2023-12-20T06:48:06;39.43;;;26.70;;
12208;SDS011;6167;43.080;25.634;2023-12-20T06:50:33;50.40;;;32.77;;
12208;SDS011;6167;43.080;25.634;2023-12-20T06:53:05;62.27;;;35.47;;
12208;SDS011;6167;43.080;25.634;2023-12-20T06:55:34;66.53;;;42.43;;
12208;SDS011;6167;43.080;25.634;2023-12-20T06:58:03;65.33;;;40.33;;
12208;SDS011;6167;43.080;25.634;2023-12-20T07:00:30;63.77;;;41.30;;
12208;SDS011;6167;43.080;25.634;2023-12-20T07:02:56;61.50;;;39.10;;
12208;SDS011;6167;43.080;25.634;2023-12-20T07:05:24;63.90;;;39.53;;
12208;SDS011;6167;43.080;25.634;2023-12-20T07:07:50;62.73;;;41.07;;
12208;SDS011;6167;43.080;25.634;2023-12-20T07:10:18;63.47;;;43.03;;
12208;SDS011;6167;43.080;25.634;2023-12-20T07:12:46;67.23;;;43.00;;
12208;SDS011;6167;43.080;25.634;2023-12-20T07:15:13;60.40;;;40.60;;
12208;SDS011;6167;43.080;25.634;2023-12-20T07:17:40;57.83;;;39.57;;
12208;SDS011;6167;43.080;25.634;2023-12-20T07:20:08;64.03;;;41.00;;
12208;SDS011;6167;43.080;25.634;2023-12-20T07:22:36;60.17;;;39.77;;
12208;SDS011;6167;43.080;25.634;2023-12-20T07:25:03;70.87;;;42.10;;
12208;SDS011;6167;43.080;25.634;2023-12-20T07:27:30;70.10;;;43.77;;
12208;SDS011;6167;43.080;25.634;2023-12-20T07:29:58;63.80;;;40.20;;
12208;SDS011;6167;43.080;25.634;2023-12-20T07:32:25;55.93;;;39.80;;
12208;SDS011;6167;43.080;25.634;2023-12-20T07:34:52;60.53;;;40.33;;
12208;SDS011;6167;43.080;25.634;2023-12-20T07:37:19;55.97;;;38.40;;
12208;SDS011;6167;43.080;25.634;2023-12-20T07:39:46;60.63;;;39.00;;
12208;SDS011;6167;43.080;25.634;2023-12-20T07:42:13;49.90;;;31.23;;
12208;SDS011;6167;43.080;25.634;2023-12-20T07:44:40;53.60;;;35.57;;
12208;SDS011;6167;43.080;25.634;2023-12-20T07:47:09;53.23;;;34.03;;
12208;SDS011;6167;43.080;25.634;2023-12-20T07:49:37;52.20;;;35.60;;
12208;SDS011;6167;43.080;25.634;2023-12-20T07:52:04;55.10;;;35.67;;
12208;SDS011;6167;43.080;25.634;2023-12-20T07:54:33;49.30;;;33.50;;
12208;SDS011;6167;43.080;25.634;2023-12-20T07:57:00;48.00;;;32.97;;
12208;SDS011;6167;43.080;25.634;2023-12-20T07:59:27;42.80;;;30.50;;
12208;SDS011;6167;43.080;25.634;2023-12-20T08:01:53;39.83;;;30.30;;
12208;SDS011;6167;43.080;25.634;2023-12-20T08:04:22;45.63;;;31.03;;
12208;SDS011;6167;43.080;25.634;2023-12-20T08:06:49;45.47;;;31.97;;
12208;SDS011;6167;43.080;25.634;2023-12-20T08:09:16;43.43;;;32.00;;
12208;SDS011;6167;43.080;25.634;2023-12-20T08:11:44;46.43;;;32.43;;
12208;SDS011;6167;43.080;25.634;2023-12-20T08:14:12;42.80;;;32.07;;
12208;SDS011;6167;43.080;25.634;2023-12-20T08:16:38;44.30;;;32.90;;
12208;SDS011;6167;43.080;25.634;2023-12-20T08:19:05;40.40;;;29.40;;
12208;SDS011;6167;43.080;25.634;2023-12-20T08:21:34;37.00;;;26.73;;
12208;SDS011;6167;43.080;25.634;2023-12-20T08:24:00;40.43;;;28.80;;
12208;SDS011;6167;43.080;25.634;2023-12-20T08:26:27;40.80;;;26.70;;
12208;SDS011;6167;43.080;25.634;2023-12-20T08:28:54;32.97;;;26.30;;
12208;SDS011;6167;43.080;25.634;2023-12-20T08:31:21;38.87;;;28.53;;
12208;SDS011;6167;43.080;25.634;2023-12-20T08:33:48;37.23;;;28.30;;
12208;SDS011;6167;43.080;25.634;2023-12-20T08:36:18;38.47;;;28.40;;
12208;SDS011;6167;43.080;25.634;2023-12-20T08:38:48;38.67;;;29.27;;
12208;SDS011;6167;43.080;25.634;2023-12-20T08:41:15;37.23;;;26.87;;
12208;SDS011;6167;43.080;25.634;2023-12-20T08:43:42;39.20;;;31.40;;
12208;SDS011;6167;43.080;25.634;2023-12-20T08:46:09;38.77;;;30.03;;
12208;SDS011;6167;43.080;25.634;2023-12-20T08:48:36;39.40;;;31.47;;
12208;SDS011;6167;43.080;25.634;2023-12-20T08:51:05;43.23;;;30.43;;
12208;SDS011;6167;43.080;25.634;2023-12-20T08:53:33;44.43;;;30.00;;
12208;SDS011;6167;43.080;25.634;2023-12-20T08:56:02;39.70;;;28.63;;
12208;SDS011;6167;43.080;25.634;2023-12-20T08:58:29;40.50;;;29.90;;
12208;SDS011;6167;43.080;25.634;2023-12-20T09:00:56;34.73;;;27.33;;
12208;SDS011;6167;43.080;25.634;2023-12-20T09:03:24;34.33;;;27.03;;
12208;SDS011;6167;43.080;25.634;2023-12-20T09:05:51;33.20;;;26.33;;
12208;SDS011;6167;43.080;25.634;2023-12-20T09:08:18;43.47;;;28.67;;
12208;SDS011;6167;43.080;25.634;2023-12-20T09:10:45;39.00;;;27.33;;
12208;SDS011;6167;43.080;25.634;2023-12-20T09:13:13;39.07;;;27.17;;
12208;SDS011;6167;43.080;25.634;2023-12-20T09:15:40;44.90;;;30.43;;
12208;SDS011;6167;43.080;25.634;2023-12-20T09:18:07;46.40;;;32.13;;
12208;SDS011;6167;43.080;25.634;2023-12-20T09:20:34;44.20;;;30.70;;
12208;SDS011;6167;43.080;25.634;2023-12-20T09:23:01;47.53;;;32.10;;
12208;SDS011;6167;43.080;25.634;2023-12-20T09:25:28;46.77;;;33.33;;
12208;SDS011;6167;43.080;25.634;2023-12-20T09:27:57;47.47;;;33.47;;
12208;SDS011;6167;43.080;25.634;2023-12-20T09:30:25;46.50;;;32.97;;
12208;SDS011;6167;43.080;25.634;2023-12-20T09:32:52;96.30;;;52.03;;
12208;SDS011;6167;43.080;25.634;2023-12-20T09:35:19;53.37;;;35.07;;
12208;SDS011;6167;43.080;25.634;2023-12-20T09:37:46;50.60;;;36.73;;
12208;SDS011;6167;43.080;25.634;2023-12-20T09:40:13;51.87;;;36.50;;
12208;SDS011;6167;43.080;25.634;2023-12-20T09:42:43;46.77;;;34.73;;
12208;SDS011;6167;43.080;25.634;2023-12-20T09:45:16;46.73;;;32.60;;
12208;SDS011;6167;43.080;25.634;2023-12-20T09:47:49;53.53;;;35.73;;
12208;SDS011;6167;43.080;25.634;2023-12-20T09:50:16;52.50;;;32.67;;
12208;SDS011;6167;43.080;25.634;2023-12-20T09:52:46;50.43;;;34.27;;
12208;SDS011;6167;43.080;25.634;2023-12-20T09:55:17;80.87;;;48.10;;
12208;SDS011;6167;43.080;25.634;2023-12-20T09:57:44;58.13;;;39.30;;
12208;SDS011;6167;43.080;25.634;2023-12-20T10:00:11;44.77;;;33.27;;
12208;SDS011;6167;43.080;25.634;2023-12-20T10:02:41;40.53;;;32.47;;
12208;SDS011;6167;43.080;25.634;2023-12-20T10:05:13;100.90;;;53.13;;
12208;SDS011;6167;43.080;25.634;2023-12-20T10:07:44;69.63;;;43.70;;
12208;SDS011;6167;43.080;25.634;2023-12-20T10:10:12;44.13;;;33.78;;
12208;SDS011;6167;43.080;25.634;2023-12-20T10:12:39;41.38;;;32.88;;
12208;SDS011;6167;43.080;25.634;2023-12-20T10:15:07;38.15;;;31.67;;
12208;SDS011;6167;43.080;25.634;2023-12-20T10:17:35;39.40;;;32.55;;
12208;SDS011;6167;43.080;25.634;2023-12-20T10:20:02;41.70;;;34.72;;
12208;SDS011;6167;43.080;25.634;2023-12-20T10:22:36;34.03;;;29.77;;
12208;SDS011;6167;43.080;25.634;2023-12-20T10:25:03;35.65;;;29.48;;
12208;SDS011;6167;43.080;25.634;2023-12-20T10:27:31;24.90;;;20.70;;
12208;SDS011;6167;43.080;25.634;2023-12-20T10:29:58;30.00;;;23.27;;
12208;SDS011;6167;43.080;25.634;2023-12-20T10:32:26;28.90;;;21.58;;
12208;SDS011;6167;43.080;25.634;2023-12-20T10:34:54;27.98;;;22.98;;
12208;SDS011;6167;43.080;25.634;2023-12-20T10:37:21;29.88;;;26.70;;
12208;SDS011;6167;43.080;25.634;2023-12-20T10:39:50;35.33;;;28.38;;
12208;SDS011;6167;43.080;25.634;2023-12-20T10:42:28;29.92;;;25.95;;
12208;SDS011;6167;43.080;25.634;2023-12-20T10:44:59;33.97;;;26.77;;
12208;SDS011;6167;43.080;25.634;2023-12-20T10:47:26;33.83;;;28.83;;
12208;SDS011;6167;43.080;25.634;2023-12-20T10:53:10;32.95;;;26.67;;
12208;SDS011;6167;43.080;25.634;2023-12-20T10:55:40;28.42;;;24.75;;
12208;SDS011;6167;43.080;25.634;2023-12-20T10:58:09;27.92;;;23.65;;
12208;SDS011;6167;43.080;25.634;2023-12-20T11:00:38;30.98;;;25.52;;
12208;SDS011;6167;43.080;25.634;2023-12-20T11:03:06;28.27;;;21.95;;
12208;SDS011;6167;43.080;25.634;2023-12-20T11:05:37;40.33;;;29.80;;
12208;SDS011;6167;43.080;25.634;2023-12-20T11:08:10;27.42;;;24.45;;
12208;SDS011;6167;43.080;25.634;2023-12-20T11:10:47;24.08;;;21.42;;
12208;SDS011;6167;43.080;25.634;2023-12-20T11:13:22;24.95;;;22.25;;
12208;SDS011;6167;43.080;25.634;2023-12-20T11:15:54;25.17;;;21.90;;
12208;SDS011;6167;43.080;25.634;2023-12-20T11:18:20;25.27;;;22.50;;
12208;SDS011;6167;43.080;25.634;2023-12-20T11:20:55;26.25;;;21.17;;
12208;SDS011;6167;43.080;25.634;2023-12-20T11:23:26;24.98;;;21.00;;
12208;SDS011;6167;43.080;25.634;2023-12-20T11:25:55;27.58;;;22.20;;
12208;SDS011;6167;43.080;25.634;2023-12-20T11:28:24;23.15;;;20.63;;
12208;SDS011;6167;43.080;25.634;2023-12-20T11:30:52;49.20;;;31.25;;
12208;SDS011;6167;43.080;25.634;2023-12-20T11:33:23;36.40;;;25.95;;
12208;SDS011;6167;43.080;25.634;2023-12-20T11:35:51;25.88;;;21.70;;
12208;SDS011;6167;43.080;25.634;2023-12-20T11:38:19;21.33;;;18.95;;
12208;SDS011;6167;43.080;25.634;2023-12-20T11:40:47;23.80;;;18.85;;
12208;SDS011;6167;43.080;25.634;2023-12-20T11:43:30;22.83;;;19.92;;
12208;SDS011;6167;43.080;25.634;2023-12-20T11:46:02;22.40;;;18.48;;
12208;SDS011;6167;43.080;25.634;2023-12-20T11:48:30;24.60;;;19.90;;
12208;SDS011;6167;43.080;25.634;2023-12-20T11:50:57;22.17;;;17.95;;
12208;SDS011;6167;43.080;25.634;2023-12-20T11:53:24;19.95;;;17.85;;
12208;SDS011;6167;43.080;25.634;2023-12-20T11:55:51;24.05;;;19.60;;
12208;SDS011;6167;43.080;25.634;2023-12-20T11:58:19;51.38;;;34.72;;
12208;SDS011;6167;43.080;25.634;2023-12-20T12:00:48;20.50;;;16.55;;
12208;SDS011;6167;43.080;25.634;2023-12-20T12:03:16;20.08;;;16.38;;
12208;SDS011;6167;43.080;25.634;2023-12-20T12:05:43;21.75;;;16.65;;
12208;SDS011;6167;43.080;25.634;2023-12-20T12:08:12;20.35;;;15.57;;
12208;SDS011;6167;43.080;25.634;2023-12-20T12:10:39;16.40;;;14.00;;
12208;SDS011;6167;43.080;25.634;2023-12-20T12:13:06;18.95;;;15.98;;
12208;SDS011;6167;43.080;25.634;2023-12-20T12:15:33;17.42;;;14.35;;
12208;SDS011;6167;43.080;25.634;2023-12-20T12:18:01;16.73;;;13.98;;
12208;SDS011;6167;43.080;25.634;2023-12-20T12:20:28;18.23;;;14.25;;
12208;SDS011;6167;43.080;25.634;2023-12-20T12:22:58;17.48;;;14.23;;
12208;SDS011;6167;43.080;25.634;2023-12-20T12:25:25;19.75;;;13.15;;
12208;SDS011;6167;43.080;25.634;2023-12-20T12:27:52;19.70;;;13.13;;
12208;SDS011;6167;43.080;25.634;2023-12-20T12:30:19;18.92;;;14.30;;
12208;SDS011;6167;43.080;25.634;2023-12-20T12:32:46;16.23;;;13.88;;
12208;SDS011;6167;43.080;25.634;2023-12-20T12:35:14;14.55;;;12.65;;
12208;SDS011;6167;43.080;25.634;2023-12-20T12:37:41;19.40;;;13.18;;
12208;SDS011;6167;43.080;25.634;2023-12-20T12:40:10;14.25;;;12.82;;
12208;SDS011;6167;43.080;25.634;2023-12-20T12:42:38;17.40;;;13.65;;
12208;SDS011;6167;43.080;25.634;2023-12-20T12:45:06;17.40;;;13.15;;
12208;SDS011;6167;43.080;25.634;2023-12-20T12:47:33;15.23;;;12.93;;
12208;SDS011;6167;43.080;25.634;2023-12-20T12:50:01;13.75;;;12.23;;
12208;SDS011;6167;43.080;25.634;2023-12-20T12:52:29;17.50;;;13.70;;
12208;SDS011;6167;43.080;25.634;2023-12-20T12:54:56;18.05;;;13.20;;
12208;SDS011;6167;43.080;25.634;2023-12-20T12:57:23;16.95;;;12.25;;
12208;SDS011;6167;43.080;25.634;2023-12-20T12:59:50;13.38;;;11.80;;
12208;SDS011;6167;43.080;25.634;2023-12-20T13:02:17;16.23;;;11.90;;
12208;SDS011;6167;43.080;25.634;2023-12-20T13:04:44;19.13;;;12.38;;
12208;SDS011;6167;43.080;25.634;2023-12-20T13:07:11;17.73;;;14.50;;
12208;SDS011;6167;43.080;25.634;2023-12-20T13:09:40;22.00;;;16.27;;
12208;SDS011;6167;43.080;25.634;2023-12-20T13:12:07;24.67;;;17.23;;
12208;SDS011;6167;43.080;25.634;2023-12-20T13:14:35;16.17;;;14.52;;
12208;SDS011;6167;43.080;25.634;2023-12-20T13:17:03;18.35;;;16.42;;
12208;SDS011;6167;43.080;25.634;2023-12-20T13:19:31;19.80;;;17.38;;
12208;SDS011;6167;43.080;25.634;2023-12-20T13:21:58;25.97;;;17.83;;
12208;SDS011;6167;43.080;25.634;2023-12-20T13:24:25;24.52;;;16.73;;
12208;SDS011;6167;43.080;25.634;2023-12-20T13:26:53;22.43;;;13.77;;
12208;SDS011;6167;43.080;25.634;2023-12-20T13:29:20;20.17;;;13.57;;
12208;SDS011;6167;43.080;25.634;2023-12-20T13:31:47;15.63;;;12.37;;
12208;SDS011;6167;43.080;25.634;2023-12-20T13:34:14;16.47;;;12.37;;
12208;SDS011;6167;43.080;25.634;2023-12-20T13:36:42;17.17;;;12.77;;
12208;SDS011;6167;43.080;25.634;2023-12-20T13:39:10;16.43;;;12.83;;
12208;SDS011;6167;43.080;25.634;2023-12-20T13:41:38;22.03;;;13.73;;
12208;SDS011;6167;43.080;25.634;2023-12-20T13:44:06;18.30;;;13.73;;
12208;SDS011;6167;43.080;25.634;2023-12-20T13:46:33;19.73;;;14.40;;
12208;SDS011;6167;43.080;25.634;2023-12-20T13:49:00;19.25;;;14.55;;
12208;SDS011;6167;43.080;25.634;2023-12-20T13:51:27;20.83;;;15.40;;
12208;SDS011;6167;43.080;25.634;2023-12-20T13:53:54;33.63;;;21.50;;
12208;SDS011;6167;43.080;25.634;2023-12-20T13:56:20;38.87;;;19.93;;
12208;SDS011;6167;43.080;25.634;2023-12-20T13:58:48;93.17;;;49.50;;
12208;SDS011;6167;43.080;25.634;2023-12-20T14:01:17;160.90;;;72.37;;
12208;SDS011;6167;43.080;25.634;2023-12-20T14:03:44;74.77;;;40.20;;
12208;SDS011;6167;43.080;25.634;2023-12-20T14:06:10;46.43;;;25.47;;
12208;SDS011;6167;43.080;25.634;2023-12-20T14:08:38;24.40;;;16.80;;
12208;SDS011;6167;43.080;25.634;2023-12-20T14:11:05;24.63;;;17.47;;
12208;SDS011;6167;43.080;25.634;2023-12-20T14:13:32;25.63;;;18.40;;
12208;SDS011;6167;43.080;25.634;2023-12-20T14:15:59;34.63;;;23.10;;
12208;SDS011;6167;43.080;25.634;2023-12-20T14:18:28;20.17;;;16.10;;
12208;SDS011;6167;43.080;25.634;2023-12-20T14:20:55;20.80;;;14.10;;
12208;SDS011;6167;43.080;25.634;2023-12-20T14:23:22;18.93;;;14.20;;
12208;SDS011;6167;43.080;25.634;2023-12-20T14:25:49;17.03;;;13.83;;
12208;SDS011;6167;43.080;25.634;2023-12-20T14:28:17;54.73;;;36.97;;
12208;SDS011;6167;43.080;25.634;2023-12-20T14:30:44;27.77;;;18.33;;